Terminal Aerodrome Forecast
Issued by NWS Upton, NY

Home | Current Version | Previous Version | Text Only | Print | Product List | Glossary On
Versions: 1 2 3 4 5 6 7 8 9 10 11 12 13 14 15 16 17 18 19 20 21 22 23 24 25 26 27 28 29 30 31 32 33 34
000
FTUS41 KOKX 260800 AAA
TAFEWR
TAF AMD
KEWR 260832Z 2609/2712 02010KT P6SM BKN040
     FM261100 04014KT P6SM BKN030
      TEMPO 2611/2615 3SM -SN BR BKN015
     FM261500 04016G20KT 1SM -SN BR BKN007
     FM261800 04016G23KT 3/4SM -SN BR BKN007
     FM262200 03018G26KT 1/2SM SN FZFG VV005
     FM270400 01020G30KT 1/2SM SN FZFG VV005
     FM270800 35023G33KT 1/4SM +SN FZFG VV004=

USA.gov is the U.S. government's official web portal to all federal, state and local government web resources and services.